sensor_id;sensor_type;location;lat;lon;timestamp;P1;durP1;ratioP1;P2;durP2;ratioP2
11618;SDS011;5865;48.776;9.280;2023-03-13T00:01:28;8.00;;;2.53;;
11618;SDS011;5865;48.776;9.280;2023-03-13T00:03:59;4.77;;;1.73;;
11618;SDS011;5865;48.776;9.280;2023-03-13T00:06:29;7.83;;;2.33;;
11618;SDS011;5865;48.776;9.280;2023-03-13T00:09:04;7.67;;;2.27;;
11618;SDS011;5865;48.776;9.280;2023-03-13T00:11:41;6.33;;;2.10;;
11618;SDS011;5865;48.776;9.280;2023-03-13T00:14:08;6.57;;;2.50;;
11618;SDS011;5865;48.776;9.280;2023-03-13T00:16:39;10.47;;;2.40;;
11618;SDS011;5865;48.776;9.280;2023-03-13T00:19:08;6.77;;;2.70;;
11618;SDS011;5865;48.776;9.280;2023-03-13T00:21:35;6.47;;;2.10;;
11618;SDS011;5865;48.776;9.280;2023-03-13T00:24:09;10.97;;;2.37;;
11618;SDS011;5865;48.776;9.280;2023-03-13T00:26:37;7.30;;;2.50;;
11618;SDS011;5865;48.776;9.280;2023-03-13T00:29:05;8.30;;;2.60;;
11618;SDS011;5865;48.776;9.280;2023-03-13T00:31:32;9.40;;;2.60;;
11618;SDS011;5865;48.776;9.280;2023-03-13T00:34:00;7.10;;;2.33;;
11618;SDS011;5865;48.776;9.280;2023-03-13T00:36:29;7.27;;;2.17;;
11618;SDS011;5865;48.776;9.280;2023-03-13T00:38:59;6.50;;;2.47;;
11618;SDS011;5865;48.776;9.280;2023-03-13T00:41:29;7.97;;;2.67;;
11618;SDS011;5865;48.776;9.280;2023-03-13T00:43:57;10.00;;;2.40;;
11618;SDS011;5865;48.776;9.280;2023-03-13T00:46:26;6.13;;;2.27;;
11618;SDS011;5865;48.776;9.280;2023-03-13T00:48:54;6.87;;;2.30;;
11618;SDS011;5865;48.776;9.280;2023-03-13T00:51:36;7.73;;;2.53;;
11618;SDS011;5865;48.776;9.280;2023-03-13T00:54:04;7.03;;;2.63;;
11618;SDS011;5865;48.776;9.280;2023-03-13T00:56:36;7.70;;;2.30;;
11618;SDS011;5865;48.776;9.280;2023-03-13T00:59:13;10.30;;;2.40;;
11618;SDS011;5865;48.776;9.280;2023-03-13T01:01:41;6.53;;;2.30;;
11618;SDS011;5865;48.776;9.280;2023-03-13T01:04:12;8.77;;;2.37;;
11618;SDS011;5865;48.776;9.280;2023-03-13T01:06:39;5.93;;;2.47;;
11618;SDS011;5865;48.776;9.280;2023-03-13T01:09:08;9.50;;;2.50;;
11618;SDS011;5865;48.776;9.280;2023-03-13T01:11:39;6.43;;;2.60;;
11618;SDS011;5865;48.776;9.280;2023-03-13T01:14:08;8.70;;;2.67;;
11618;SDS011;5865;48.776;9.280;2023-03-13T01:16:37;10.40;;;2.53;;
11618;SDS011;5865;48.776;9.280;2023-03-13T01:19:05;7.27;;;2.33;;
11618;SDS011;5865;48.776;9.280;2023-03-13T01:21:33;7.13;;;2.53;;
11618;SDS011;5865;48.776;9.280;2023-03-13T01:24:02;5.03;;;2.50;;
11618;SDS011;5865;48.776;9.280;2023-03-13T01:26:30;10.13;;;3.23;;
11618;SDS011;5865;48.776;9.280;2023-03-13T01:29:00;7.70;;;2.93;;
11618;SDS011;5865;48.776;9.280;2023-03-13T01:31:28;9.10;;;2.67;;
11618;SDS011;5865;48.776;9.280;2023-03-13T01:34:00;8.10;;;2.60;;
11618;SDS011;5865;48.776;9.280;2023-03-13T01:36:31;10.53;;;3.20;;
11618;SDS011;5865;48.776;9.280;2023-03-13T01:39:07;7.90;;;2.60;;
11618;SDS011;5865;48.776;9.280;2023-03-13T01:41:40;7.70;;;2.67;;
11618;SDS011;5865;48.776;9.280;2023-03-13T01:44:12;7.00;;;2.53;;
11618;SDS011;5865;48.776;9.280;2023-03-13T01:46:50;6.20;;;2.10;;
11618;SDS011;5865;48.776;9.280;2023-03-13T01:49:24;6.73;;;2.60;;
11618;SDS011;5865;48.776;9.280;2023-03-13T01:52:00;7.63;;;2.50;;
11618;SDS011;5865;48.776;9.280;2023-03-13T01:54:33;6.00;;;2.53;;
11618;SDS011;5865;48.776;9.280;2023-03-13T01:57:07;7.70;;;2.10;;
11618;SDS011;5865;48.776;9.280;2023-03-13T01:59:43;6.13;;;1.90;;
11618;SDS011;5865;48.776;9.280;2023-03-13T02:02:13;6.77;;;2.10;;
11618;SDS011;5865;48.776;9.280;2023-03-13T02:04:42;7.00;;;2.13;;
11618;SDS011;5865;48.776;9.280;2023-03-13T02:07:14;6.27;;;2.07;;
11618;SDS011;5865;48.776;9.280;2023-03-13T02:09:46;7.73;;;2.27;;
11618;SDS011;5865;48.776;9.280;2023-03-13T02:12:20;6.83;;;2.00;;
11618;SDS011;5865;48.776;9.280;2023-03-13T02:14:55;5.10;;;1.97;;
11618;SDS011;5865;48.776;9.280;2023-03-13T02:17:24;7.07;;;2.00;;
11618;SDS011;5865;48.776;9.280;2023-03-13T02:19:53;6.87;;;2.10;;
11618;SDS011;5865;48.776;9.280;2023-03-13T02:22:23;8.27;;;2.50;;
11618;SDS011;5865;48.776;9.280;2023-03-13T02:24:57;6.03;;;2.20;;
11618;SDS011;5865;48.776;9.280;2023-03-13T02:27:36;6.20;;;2.00;;
11618;SDS011;5865;48.776;9.280;2023-03-13T02:30:06;4.57;;;2.03;;
11618;SDS011;5865;48.776;9.280;2023-03-13T02:32:36;5.50;;;1.80;;
11618;SDS011;5865;48.776;9.280;2023-03-13T02:35:06;6.90;;;1.80;;
11618;SDS011;5865;48.776;9.280;2023-03-13T02:37:46;7.03;;;2.10;;
11618;SDS011;5865;48.776;9.280;2023-03-13T02:40:19;5.23;;;2.00;;
11618;SDS011;5865;48.776;9.280;2023-03-13T02:42:51;5.57;;;2.30;;
11618;SDS011;5865;48.776;9.280;2023-03-13T02:45:36;6.17;;;1.73;;
11618;SDS011;5865;48.776;9.280;2023-03-13T02:48:26;6.10;;;2.00;;
11618;SDS011;5865;48.776;9.280;2023-03-13T02:51:12;4.67;;;1.67;;
11618;SDS011;5865;48.776;9.280;2023-03-13T02:53:43;4.07;;;1.70;;
11618;SDS011;5865;48.776;9.280;2023-03-13T02:56:14;5.77;;;1.90;;
11618;SDS011;5865;48.776;9.280;2023-03-13T02:58:46;4.23;;;2.13;;
11618;SDS011;5865;48.776;9.280;2023-03-13T03:01:13;6.20;;;1.90;;
11618;SDS011;5865;48.776;9.280;2023-03-13T03:03:41;4.77;;;1.80;;
11618;SDS011;5865;48.776;9.280;2023-03-13T03:06:09;8.07;;;2.20;;
11618;SDS011;5865;48.776;9.280;2023-03-13T03:08:37;4.87;;;1.70;;
11618;SDS011;5865;48.776;9.280;2023-03-13T03:11:06;7.40;;;2.10;;
11618;SDS011;5865;48.776;9.280;2023-03-13T03:13:33;4.07;;;2.00;;
11618;SDS011;5865;48.776;9.280;2023-03-13T03:16:05;6.70;;;2.10;;
11618;SDS011;5865;48.776;9.280;2023-03-13T03:18:33;7.20;;;2.10;;
11618;SDS011;5865;48.776;9.280;2023-03-13T03:21:02;4.17;;;1.87;;
11618;SDS011;5865;48.776;9.280;2023-03-13T03:23:35;5.17;;;1.93;;
11618;SDS011;5865;48.776;9.280;2023-03-13T03:26:06;4.43;;;1.70;;
11618;SDS011;5865;48.776;9.280;2023-03-13T03:28:34;6.73;;;1.70;;
11618;SDS011;5865;48.776;9.280;2023-03-13T03:31:09;4.77;;;1.80;;
11618;SDS011;5865;48.776;9.280;2023-03-13T03:33:38;4.37;;;1.53;;
11618;SDS011;5865;48.776;9.280;2023-03-13T03:36:09;4.90;;;1.70;;
11618;SDS011;5865;48.776;9.280;2023-03-13T03:38:38;6.57;;;1.60;;
11618;SDS011;5865;48.776;9.280;2023-03-13T03:41:07;3.43;;;1.70;;
11618;SDS011;5865;48.776;9.280;2023-03-13T03:43:34;4.10;;;1.53;;
11618;SDS011;5865;48.776;9.280;2023-03-13T03:46:04;3.97;;;1.20;;
11618;SDS011;5865;48.776;9.280;2023-03-13T03:48:34;4.43;;;1.43;;
11618;SDS011;5865;48.776;9.280;2023-03-13T03:51:04;6.80;;;1.97;;
11618;SDS011;5865;48.776;9.280;2023-03-13T03:53:35;7.53;;;1.63;;
11618;SDS011;5865;48.776;9.280;2023-03-13T03:56:02;3.80;;;1.40;;
11618;SDS011;5865;48.776;9.280;2023-03-13T03:58:30;2.50;;;1.23;;
11618;SDS011;5865;48.776;9.280;2023-03-13T04:01:12;2.63;;;1.03;;
11618;SDS011;5865;48.776;9.280;2023-03-13T04:03:41;2.57;;;0.90;;
11618;SDS011;5865;48.776;9.280;2023-03-13T04:06:08;1.10;;;0.90;;
11618;SDS011;5865;48.776;9.280;2023-03-13T04:08:38;4.27;;;1.20;;
11618;SDS011;5865;48.776;9.280;2023-03-13T04:11:08;4.37;;;1.07;;
11618;SDS011;5865;48.776;9.280;2023-03-13T04:13:39;3.07;;;1.10;;
11618;SDS011;5865;48.776;9.280;2023-03-13T04:16:06;1.93;;;0.90;;
11618;SDS011;5865;48.776;9.280;2023-03-13T04:18:34;2.90;;;1.00;;
11618;SDS011;5865;48.776;9.280;2023-03-13T04:21:04;2.17;;;1.20;;
11618;SDS011;5865;48.776;9.280;2023-03-13T04:23:40;3.30;;;1.00;;
11618;SDS011;5865;48.776;9.280;2023-03-13T04:26:08;3.77;;;1.10;;
11618;SDS011;5865;48.776;9.280;2023-03-13T04:28:38;2.47;;;1.20;;
11618;SDS011;5865;48.776;9.280;2023-03-13T04:31:07;2.43;;;1.10;;
11618;SDS011;5865;48.776;9.280;2023-03-13T04:34:08;2.57;;;1.20;;
11618;SDS011;5865;48.776;9.280;2023-03-13T04:37:14;2.93;;;1.50;;
11618;SDS011;5865;48.776;9.280;2023-03-13T04:40:14;2.60;;;1.20;;
11618;SDS011;5865;48.776;9.280;2023-03-13T04:42:54;3.33;;;1.10;;
11618;SDS011;5865;48.776;9.280;2023-03-13T04:45:51;2.03;;;1.33;;
11618;SDS011;5865;48.776;9.280;2023-03-13T04:48:29;1.97;;;1.27;;
11618;SDS011;5865;48.776;9.280;2023-03-13T04:51:24;1.60;;;1.00;;
11618;SDS011;5865;48.776;9.280;2023-03-13T04:54:13;1.77;;;1.10;;
11618;SDS011;5865;48.776;9.280;2023-03-13T04:57:17;1.80;;;1.10;;
11618;SDS011;5865;48.776;9.280;2023-03-13T05:00:20;1.30;;;0.90;;
11618;SDS011;5865;48.776;9.280;2023-03-13T05:03:09;2.10;;;0.93;;
11618;SDS011;5865;48.776;9.280;2023-03-13T05:05:48;2.10;;;1.03;;
11618;SDS011;5865;48.776;9.280;2023-03-13T05:08:55;3.10;;;1.00;;
11618;SDS011;5865;48.776;9.280;2023-03-13T05:11:39;1.20;;;1.03;;
11618;SDS011;5865;48.776;9.280;2023-03-13T05:14:18;1.53;;;1.00;;
11618;SDS011;5865;48.776;9.280;2023-03-13T05:16:51;0.73;;;0.60;;
11618;SDS011;5865;48.776;9.280;2023-03-13T05:19:41;1.67;;;0.77;;
11618;SDS011;5865;48.776;9.280;2023-03-13T05:22:22;2.60;;;0.90;;
11618;SDS011;5865;48.776;9.280;2023-03-13T05:25:12;1.97;;;0.97;;
11618;SDS011;5865;48.776;9.280;2023-03-13T05:27:59;1.60;;;1.00;;
11618;SDS011;5865;48.776;9.280;2023-03-13T05:30:35;1.37;;;1.00;;
11618;SDS011;5865;48.776;9.280;2023-03-13T05:33:25;1.37;;;0.70;;
11618;SDS011;5865;48.776;9.280;2023-03-13T05:36:09;2.03;;;1.10;;
11618;SDS011;5865;48.776;9.280;2023-03-13T05:39:09;1.47;;;1.00;;
11618;SDS011;5865;48.776;9.280;2023-03-13T05:41:53;1.07;;;0.90;;
11618;SDS011;5865;48.776;9.280;2023-03-13T05:44:35;1.50;;;0.83;;
11618;SDS011;5865;48.776;9.280;2023-03-13T05:47:25;2.33;;;1.00;;
11618;SDS011;5865;48.776;9.280;2023-03-13T05:50:11;2.17;;;0.90;;
11618;SDS011;5865;48.776;9.280;2023-03-13T05:53:00;1.57;;;1.00;;
11618;SDS011;5865;48.776;9.280;2023-03-13T05:55:50;2.03;;;0.90;;
11618;SDS011;5865;48.776;9.280;2023-03-13T05:58:45;2.43;;;1.03;;
11618;SDS011;5865;48.776;9.280;2023-03-13T06:01:29;1.20;;;0.80;;
11618;SDS011;5865;48.776;9.280;2023-03-13T06:04:08;1.80;;;0.83;;
11618;SDS011;5865;48.776;9.280;2023-03-13T06:06:38;1.27;;;0.90;;
11618;SDS011;5865;48.776;9.280;2023-03-13T06:09:05;1.77;;;0.97;;
11618;SDS011;5865;48.776;9.280;2023-03-13T06:11:47;2.17;;;0.97;;
11618;SDS011;5865;48.776;9.280;2023-03-13T06:14:17;5.07;;;2.27;;
11618;SDS011;5865;48.776;9.280;2023-03-13T06:17:03;2.00;;;1.13;;
11618;SDS011;5865;48.776;9.280;2023-03-13T06:19:39;2.07;;;1.17;;
11618;SDS011;5865;48.776;9.280;2023-03-13T06:22:11;1.13;;;0.77;;
11618;SDS011;5865;48.776;9.280;2023-03-13T06:24:38;1.73;;;0.90;;
11618;SDS011;5865;48.776;9.280;2023-03-13T06:27:19;2.37;;;0.80;;
11618;SDS011;5865;48.776;9.280;2023-03-13T06:30:00;1.70;;;0.90;;
11618;SDS011;5865;48.776;9.280;2023-03-13T06:32:29;2.57;;;0.97;;
11618;SDS011;5865;48.776;9.280;2023-03-13T06:34:56;1.17;;;0.80;;
11618;SDS011;5865;48.776;9.280;2023-03-13T06:37:23;0.77;;;0.77;;
11618;SDS011;5865;48.776;9.280;2023-03-13T06:39:50;1.87;;;0.90;;
11618;SDS011;5865;48.776;9.280;2023-03-13T06:42:18;1.17;;;0.60;;
11618;SDS011;5865;48.776;9.280;2023-03-13T06:44:45;1.57;;;0.77;;
11618;SDS011;5865;48.776;9.280;2023-03-13T06:47:14;2.13;;;0.70;;
11618;SDS011;5865;48.776;9.280;2023-03-13T06:49:47;1.70;;;0.67;;
11618;SDS011;5865;48.776;9.280;2023-03-13T06:52:14;1.00;;;0.90;;
11618;SDS011;5865;48.776;9.280;2023-03-13T06:54:41;1.20;;;0.90;;
11618;SDS011;5865;48.776;9.280;2023-03-13T06:57:08;2.40;;;0.90;;
11618;SDS011;5865;48.776;9.280;2023-03-13T06:59:36;1.27;;;0.80;;
11618;SDS011;5865;48.776;9.280;2023-03-13T07:02:03;1.87;;;1.00;;
11618;SDS011;5865;48.776;9.280;2023-03-13T07:04:32;1.73;;;0.90;;
11618;SDS011;5865;48.776;9.280;2023-03-13T07:07:00;1.10;;;0.60;;
11618;SDS011;5865;48.776;9.280;2023-03-13T07:09:27;0.97;;;0.70;;
11618;SDS011;5865;48.776;9.280;2023-03-13T07:11:54;0.80;;;0.70;;
11618;SDS011;5865;48.776;9.280;2023-03-13T07:14:22;1.50;;;1.30;;
11618;SDS011;5865;48.776;9.280;2023-03-13T07:16:50;2.00;;;1.20;;
11618;SDS011;5865;48.776;9.280;2023-03-13T07:19:19;1.90;;;1.50;;
11618;SDS011;5865;48.776;9.280;2023-03-13T07:21:46;3.20;;;2.30;;
11618;SDS011;5865;48.776;9.280;2023-03-13T07:24:15;0.97;;;0.83;;
11618;SDS011;5865;48.776;9.280;2023-03-13T07:26:42;1.40;;;1.10;;
11618;SDS011;5865;48.776;9.280;2023-03-13T07:29:09;1.47;;;0.73;;
11618;SDS011;5865;48.776;9.280;2023-03-13T07:31:37;0.63;;;0.50;;
11618;SDS011;5865;48.776;9.280;2023-03-13T07:34:04;1.07;;;0.80;;
11618;SDS011;5865;48.776;9.280;2023-03-13T07:36:31;0.83;;;0.80;;
11618;SDS011;5865;48.776;9.280;2023-03-13T07:39:00;1.20;;;1.00;;
11618;SDS011;5865;48.776;9.280;2023-03-13T07:41:30;1.27;;;1.07;;
11618;SDS011;5865;48.776;9.280;2023-03-13T07:43:57;0.80;;;0.70;;
11618;SDS011;5865;48.776;9.280;2023-03-13T07:49:10;1.20;;;0.90;;
11618;SDS011;5865;48.776;9.280;2023-03-13T07:51:37;0.83;;;0.67;;
11618;SDS011;5865;48.776;9.280;2023-03-13T07:54:18;1.40;;;0.80;;
11618;SDS011;5865;48.776;9.280;2023-03-13T07:57:09;0.57;;;0.57;;
11618;SDS011;5865;48.776;9.280;2023-03-13T07:59:37;1.20;;;0.73;;
11618;SDS011;5865;48.776;9.280;2023-03-13T08:02:04;0.90;;;0.53;;
11618;SDS011;5865;48.776;9.280;2023-03-13T08:04:33;0.50;;;0.50;;
11618;SDS011;5865;48.776;9.280;2023-03-13T08:07:00;1.27;;;0.80;;
11618;SDS011;5865;48.776;9.280;2023-03-13T08:09:30;0.80;;;0.80;;
11618;SDS011;5865;48.776;9.280;2023-03-13T08:11:57;0.70;;;0.70;;
11618;SDS011;5865;48.776;9.280;2023-03-13T08:14:26;1.00;;;0.67;;
11618;SDS011;5865;48.776;9.280;2023-03-13T08:16:53;0.70;;;0.70;;
11618;SDS011;5865;48.776;9.280;2023-03-13T08:19:20;1.60;;;0.87;;
11618;SDS011;5865;48.776;9.280;2023-03-13T08:21:48;1.00;;;0.80;;
11618;SDS011;5865;48.776;9.280;2023-03-13T08:24:15;2.37;;;0.70;;
11618;SDS011;5865;48.776;9.280;2023-03-13T08:26:41;1.00;;;0.60;;
11618;SDS011;5865;48.776;9.280;2023-03-13T08:29:09;1.57;;;0.70;;
11618;SDS011;5865;48.776;9.280;2023-03-13T08:31:41;1.25;;;0.90;;
11618;SDS011;5865;48.776;9.280;2023-03-13T08:34:17;1.25;;;0.80;;
11618;SDS011;5865;48.776;9.280;2023-03-13T08:36:44;0.57;;;0.57;;
11618;SDS011;5865;48.776;9.280;2023-03-13T08:39:12;2.90;;;2.00;;
11618;SDS011;5865;48.776;9.280;2023-03-13T08:41:40;1.60;;;1.50;;
11618;SDS011;5865;48.776;9.280;2023-03-13T08:44:08;1.92;;;0.80;;
11618;SDS011;5865;48.776;9.280;2023-03-13T08:46:36;1.42;;;1.00;;
11618;SDS011;5865;48.776;9.280;2023-03-13T08:49:06;2.28;;;1.10;;
11618;SDS011;5865;48.776;9.280;2023-03-13T08:51:33;1.10;;;0.98;;
11618;SDS011;5865;48.776;9.280;2023-03-13T08:54:01;2.58;;;1.00;;
11618;SDS011;5865;48.776;9.280;2023-03-13T08:56:29;1.73;;;1.17;;
11618;SDS011;5865;48.776;9.280;2023-03-13T08:58:57;2.53;;;1.00;;
11618;SDS011;5865;48.776;9.280;2023-03-13T09:01:26;1.60;;;1.00;;
11618;SDS011;5865;48.776;9.280;2023-03-13T09:03:56;2.50;;;1.20;;
11618;SDS011;5865;48.776;9.280;2023-03-13T09:06:24;1.13;;;0.90;;
11618;SDS011;5865;48.776;9.280;2023-03-13T09:08:54;1.98;;;1.27;;
11618;SDS011;5865;48.776;9.280;2023-03-13T09:11:35;2.28;;;1.48;;
11618;SDS011;5865;48.776;9.280;2023-03-13T09:14:17;1.10;;;0.90;;
11618;SDS011;5865;48.776;9.280;2023-03-13T09:16:44;3.05;;;1.00;;
11618;SDS011;5865;48.776;9.280;2023-03-13T09:19:22;1.23;;;0.80;;
11618;SDS011;5865;48.776;9.280;2023-03-13T09:21:54;3.13;;;2.22;;
11618;SDS011;5865;48.776;9.280;2023-03-13T09:24:23;3.83;;;2.50;;
11618;SDS011;5865;48.776;9.280;2023-03-13T09:27:11;2.95;;;1.17;;
11618;SDS011;5865;48.776;9.280;2023-03-13T09:29:44;1.63;;;0.95;;
11618;SDS011;5865;48.776;9.280;2023-03-13T09:32:11;1.27;;;0.90;;
11618;SDS011;5865;48.776;9.280;2023-03-13T09:34:44;2.97;;;1.17;;
11618;SDS011;5865;48.776;9.280;2023-03-13T09:37:11;1.67;;;1.10;;
11618;SDS011;5865;48.776;9.280;2023-03-13T09:39:38;2.70;;;1.30;;
11618;SDS011;5865;48.776;9.280;2023-03-13T09:48:03;2.40;;;1.00;;
11618;SDS011;5865;48.776;9.280;2023-03-13T09:53:55;1.55;;;1.00;;
11618;SDS011;5865;48.776;9.280;2023-03-13T09:56:27;0.95;;;0.80;;
11618;SDS011;5865;48.776;9.280;2023-03-13T09:58:57;1.42;;;0.95;;
11618;SDS011;5865;48.776;9.280;2023-03-13T10:01:27;1.20;;;0.85;;
11618;SDS011;5865;48.776;9.280;2023-03-13T10:03:58;2.70;;;1.58;;
11618;SDS011;5865;48.776;9.280;2023-03-13T10:06:32;2.30;;;1.20;;
11618;SDS011;5865;48.776;9.280;2023-03-13T10:09:17;1.67;;;1.20;;
11618;SDS011;5865;48.776;9.280;2023-03-13T10:12:03;3.22;;;1.13;;
11618;SDS011;5865;48.776;9.280;2023-03-13T10:14:38;2.53;;;1.20;;
11618;SDS011;5865;48.776;9.280;2023-03-13T10:17:11;1.35;;;1.17;;
11618;SDS011;5865;48.776;9.280;2023-03-13T10:19:44;2.40;;;1.20;;
11618;SDS011;5865;48.776;9.280;2023-03-13T10:22:18;2.50;;;1.00;;
11618;SDS011;5865;48.776;9.280;2023-03-13T10:24:53;1.92;;;1.10;;
11618;SDS011;5865;48.776;9.280;2023-03-13T10:27:43;4.35;;;2.10;;
11618;SDS011;5865;48.776;9.280;2023-03-13T10:30:18;2.70;;;1.80;;
11618;SDS011;5865;48.776;9.280;2023-03-13T10:32:53;4.53;;;1.92;;
11618;SDS011;5865;48.776;9.280;2023-03-13T10:35:39;2.53;;;1.27;;
11618;SDS011;5865;48.776;9.280;2023-03-13T10:38:10;2.35;;;1.50;;
11618;SDS011;5865;48.776;9.280;2023-03-13T10:40:40;3.05;;;1.15;;
11618;SDS011;5865;48.776;9.280;2023-03-13T10:43:12;4.03;;;1.40;;
11618;SDS011;5865;48.776;9.280;2023-03-13T10:45:42;2.28;;;1.30;;
11618;SDS011;5865;48.776;9.280;2023-03-13T10:48:12;3.17;;;1.20;;
11618;SDS011;5865;48.776;9.280;2023-03-13T10:50:48;2.25;;;1.33;;
11618;SDS011;5865;48.776;9.280;2023-03-13T10:53:31;1.85;;;1.10;;
11618;SDS011;5865;48.776;9.280;2023-03-13T10:56:08;2.10;;;1.45;;
11618;SDS011;5865;48.776;9.280;2023-03-13T10:58:42;1.92;;;1.25;;
11618;SDS011;5865;48.776;9.280;2023-03-13T11:01:25;3.15;;;1.85;;
11618;SDS011;5865;48.776;9.280;2023-03-13T11:04:17;3.42;;;1.67;;
11618;SDS011;5865;48.776;9.280;2023-03-13T11:06:50;2.03;;;1.33;;
11618;SDS011;5865;48.776;9.280;2023-03-13T11:09:18;2.05;;;1.25;;
11618;SDS011;5865;48.776;9.280;2023-03-13T11:11:48;2.67;;;1.40;;
11618;SDS011;5865;48.776;9.280;2023-03-13T11:14:18;1.20;;;1.08;;
11618;SDS011;5865;48.776;9.280;2023-03-13T11:16:47;1.45;;;1.17;;
11618;SDS011;5865;48.776;9.280;2023-03-13T11:19:28;2.95;;;1.35;;
11618;SDS011;5865;48.776;9.280;2023-03-13T11:22:21;2.65;;;1.52;;
11618;SDS011;5865;48.776;9.280;2023-03-13T11:24:56;2.08;;;1.40;;
11618;SDS011;5865;48.776;9.280;2023-03-13T11:33:46;2.03;;;1.23;;
11618;SDS011;5865;48.776;9.280;2023-03-13T11:36:24;2.50;;;1.48;;
11618;SDS011;5865;48.776;9.280;2023-03-13T11:38:59;1.83;;;1.00;;
11618;SDS011;5865;48.776;9.280;2023-03-13T11:41:43;2.25;;;1.15;;
11618;SDS011;5865;48.776;9.280;2023-03-13T11:47:12;2.10;;;1.10;;
11618;SDS011;5865;48.776;9.280;2023-03-13T11:50:10;2.50;;;1.10;;
11618;SDS011;5865;48.776;9.280;2023-03-13T11:52:51;2.72;;;1.30;;
11618;SDS011;5865;48.776;9.280;2023-03-13T11:55:28;1.77;;;1.10;;
11618;SDS011;5865;48.776;9.280;2023-03-13T12:01:11;1.38;;;0.90;;
11618;SDS011;5865;48.776;9.280;2023-03-13T12:03:42;2.28;;;1.40;;
11618;SDS011;5865;48.776;9.280;2023-03-13T12:06:19;1.63;;;1.25;;
11618;SDS011;5865;48.776;9.280;2023-03-13T12:08:51;1.70;;;1.25;;
11618;SDS011;5865;48.776;9.280;2023-03-13T12:11:53;2.42;;;1.10;;
11618;SDS011;5865;48.776;9.280;2023-03-13T12:14:29;3.60;;;1.10;;
11618;SDS011;5865;48.776;9.280;2023-03-13T12:17:28;1.60;;;1.10;;
11618;SDS011;5865;48.776;9.280;2023-03-13T12:20:11;1.17;;;1.00;;
11618;SDS011;5865;48.776;9.280;2023-03-13T12:22:53;2.58;;;1.25;;
11618;SDS011;5865;48.776;9.280;2023-03-13T12:25:29;2.08;;;1.23;;
11618;SDS011;5865;48.776;9.280;2023-03-13T12:28:04;1.40;;;1.02;;
11618;SDS011;5865;48.776;9.280;2023-03-13T12:30:59;2.40;;;1.00;;
11618;SDS011;5865;48.776;9.280;2023-03-13T12:36:44;2.13;;;1.00;;
11618;SDS011;5865;48.776;9.280;2023-03-13T12:39:19;3.22;;;1.25;;
11618;SDS011;5865;48.776;9.280;2023-03-13T12:41:56;1.38;;;0.90;;
11618;SDS011;5865;48.776;9.280;2023-03-13T12:44:34;1.77;;;0.90;;
11618;SDS011;5865;48.776;9.280;2023-03-13T12:47:06;1.20;;;1.08;;
11618;SDS011;5865;48.776;9.280;2023-03-13T12:49:53;5.68;;;0.90;;
11618;SDS011;5865;48.776;9.280;2023-03-13T12:55:42;2.20;;;0.90;;
11618;SDS011;5865;48.776;9.280;2023-03-13T12:58:40;3.30;;;1.10;;
11618;SDS011;5865;48.776;9.280;2023-03-13T13:01:13;1.80;;;0.90;;
11618;SDS011;5865;48.776;9.280;2023-03-13T13:03:51;1.10;;;1.00;;
11618;SDS011;5865;48.776;9.280;2023-03-13T13:06:21;1.25;;;0.90;;
11618;SDS011;5865;48.776;9.280;2023-03-13T13:18:39;1.98;;;1.02;;
11618;SDS011;5865;48.776;9.280;2023-03-13T13:21:21;3.70;;;1.30;;
11618;SDS011;5865;48.776;9.280;2023-03-13T13:23:50;2.08;;;1.10;;
11618;SDS011;5865;48.776;9.280;2023-03-13T13:32:42;2.67;;;1.10;;
11618;SDS011;5865;48.776;9.280;2023-03-13T13:38:50;5.47;;;1.10;;
11618;SDS011;5865;48.776;9.280;2023-03-13T13:41:33;1.60;;;1.00;;
11618;SDS011;5865;48.776;9.280;2023-03-13T13:44:25;2.58;;;0.98;;
11618;SDS011;5865;48.776;9.280;2023-03-13T13:47:18;3.42;;;1.15;;
11618;SDS011;5865;48.776;9.280;2023-03-13T14:05:36;4.78;;;0.90;;
11618;SDS011;5865;48.776;9.280;2023-03-13T14:08:28;1.70;;;0.82;;
11618;SDS011;5865;48.776;9.280;2023-03-13T14:11:20;2.78;;;0.90;;
11618;SDS011;5865;48.776;9.280;2023-03-13T14:14:10;1.10;;;0.80;;
11618;SDS011;5865;48.776;9.280;2023-03-13T14:16:43;2.83;;;0.80;;
11618;SDS011;5865;48.776;9.280;2023-03-13T14:19:39;1.95;;;0.98;;
11618;SDS011;5865;48.776;9.280;2023-03-13T14:22:24;2.63;;;0.90;;
11618;SDS011;5865;48.776;9.280;2023-03-13T14:25:00;2.47;;;1.10;;
11618;SDS011;5865;48.776;9.280;2023-03-13T14:27:31;3.08;;;0.95;;
11618;SDS011;5865;48.776;9.280;2023-03-13T14:29:59;1.75;;;0.82;;
11618;SDS011;5865;48.776;9.280;2023-03-13T14:32:40;1.25;;;0.93;;
11618;SDS011;5865;48.776;9.280;2023-03-13T14:35:21;2.22;;;0.90;;
11618;SDS011;5865;48.776;9.280;2023-03-13T15:15:21;1.55;;;0.90;;
11618;SDS011;5865;48.776;9.280;2023-03-13T15:17:53;4.75;;;1.42;;
11618;SDS011;5865;48.776;9.280;2023-03-13T15:20:34;1.13;;;0.90;;
11618;SDS011;5865;48.776;9.280;2023-03-13T15:23:15;2.85;;;1.20;;
11618;SDS011;5865;48.776;9.280;2023-03-13T15:25:56;1.88;;;1.10;;
11618;SDS011;5865;48.776;9.280;2023-03-13T15:31:24;2.38;;;1.10;;
11618;SDS011;5865;48.776;9.280;2023-03-13T15:34:08;2.20;;;1.10;;
11618;SDS011;5865;48.776;9.280;2023-03-13T15:36:50;2.05;;;1.02;;
11618;SDS011;5865;48.776;9.280;2023-03-13T15:39:31;1.40;;;1.30;;
11618;SDS011;5865;48.776;9.280;2023-03-13T15:42:12;3.47;;;1.00;;
11618;SDS011;5865;48.776;9.280;2023-03-13T15:54:19;2.63;;;1.00;;
11618;SDS011;5865;48.776;9.280;2023-03-13T15:57:00;1.17;;;0.85;;
11618;SDS011;5865;48.776;9.280;2023-03-13T15:59:41;2.10;;;0.90;;
11618;SDS011;5865;48.776;9.280;2023-03-13T16:02:22;1.08;;;0.90;;
11618;SDS011;5865;48.776;9.280;2023-03-13T16:05:04;2.58;;;1.35;;
11618;SDS011;5865;48.776;9.280;2023-03-13T16:29:03;2.15;;;1.08;;
11618;SDS011;5865;48.776;9.280;2023-03-13T16:31:44;2.20;;;0.80;;
11618;SDS011;5865;48.776;9.280;2023-03-13T16:34:14;1.08;;;0.80;;
11618;SDS011;5865;48.776;9.280;2023-03-13T16:36:58;2.50;;;1.00;;
11618;SDS011;5865;48.776;9.280;2023-03-13T16:39:25;1.50;;;0.90;;
11618;SDS011;5865;48.776;9.280;2023-03-13T16:41:58;1.88;;;1.10;;
11618;SDS011;5865;48.776;9.280;2023-03-13T16:44:39;3.97;;;1.27;;
11618;SDS011;5865;48.776;9.280;2023-03-13T16:47:16;2.20;;;1.10;;
11618;SDS011;5865;48.776;9.280;2023-03-13T16:49:46;3.05;;;1.33;;
11618;SDS011;5865;48.776;9.280;2023-03-13T16:52:13;1.80;;;1.20;;
11618;SDS011;5865;48.776;9.280;2023-03-13T16:54:40;1.90;;;1.30;;
11618;SDS011;5865;48.776;9.280;2023-03-13T16:57:09;3.38;;;1.30;;
11618;SDS011;5865;48.776;9.280;2023-03-13T16:59:37;2.65;;;1.52;;
11618;SDS011;5865;48.776;9.280;2023-03-13T17:02:05;1.90;;;1.20;;
11618;SDS011;5865;48.776;9.280;2023-03-13T17:04:39;1.98;;;1.15;;
11618;SDS011;5865;48.776;9.280;2023-03-13T17:07:08;5.15;;;1.27;;
11618;SDS011;5865;48.776;9.280;2023-03-13T17:09:44;3.60;;;2.00;;
11618;SDS011;5865;48.776;9.280;2023-03-13T17:21:33;2.15;;;1.50;;
11618;SDS011;5865;48.776;9.280;2023-03-13T17:24:05;2.67;;;1.52;;
11618;SDS011;5865;48.776;9.280;2023-03-13T17:26:47;2.70;;;1.33;;
11618;SDS011;5865;48.776;9.280;2023-03-13T17:29:21;1.52;;;1.30;;
11618;SDS011;5865;48.776;9.280;2023-03-13T17:32:02;5.43;;;1.77;;
11618;SDS011;5865;48.776;9.280;2023-03-13T17:34:46;1.67;;;1.20;;
11618;SDS011;5865;48.776;9.280;2023-03-13T17:37:13;1.60;;;1.20;;
11618;SDS011;5865;48.776;9.280;2023-03-13T17:39:56;1.33;;;1.00;;
11618;SDS011;5865;48.776;9.280;2023-03-13T17:42:25;3.90;;;1.20;;
11618;SDS011;5865;48.776;9.280;2023-03-13T17:44:54;3.70;;;1.90;;
11618;SDS011;5865;48.776;9.280;2023-03-13T17:47:21;3.42;;;1.88;;
11618;SDS011;5865;48.776;9.280;2023-03-13T17:49:50;3.60;;;2.10;;
11618;SDS011;5865;48.776;9.280;2023-03-13T17:52:17;3.00;;;2.00;;
11618;SDS011;5865;48.776;9.280;2023-03-13T17:54:44;10.98;;;5.80;;
11618;SDS011;5865;48.776;9.280;2023-03-13T17:57:25;6.18;;;4.18;;
11618;SDS011;5865;48.776;9.280;2023-03-13T18:00:12;16.17;;;9.70;;
11618;SDS011;5865;48.776;9.280;2023-03-13T18:02:55;34.03;;;19.88;;
11618;SDS011;5865;48.776;9.280;2023-03-13T18:05:34;16.15;;;10.27;;
11618;SDS011;5865;48.776;9.280;2023-03-13T18:08:01;16.65;;;9.65;;
11618;SDS011;5865;48.776;9.280;2023-03-13T18:10:31;11.60;;;7.57;;
11618;SDS011;5865;48.776;9.280;2023-03-13T18:13:12;10.27;;;7.63;;